Time;durP1;ratioP1;P1;durP2;ratioP2;P2;SDS_P1;SDS_P2;PMS_P1;PMS_P2;Temp;Humidity;BMP_temperature;BMP_pressure;BME280_temperature;BME280_humidity;BME280_pressure;Samples;Min_cycle;Max_cycle;Signal;HPM_P1;HPM_P2
2021/09/12 00:08:45;;;;;;;18.50;16.70;;;;;;;14.34;70.85;99489.14;470222;1194;143171;-58
2021/09/12 00:18:49;;;;;;;20.70;18.50;;;;;;;14.12;71.31;99490.71;460957;1194;141994;-56
2021/09/12 00:28:53;;;;;;;21.60;18.30;;;;;;;13.99;71.40;99495.97;456563;1200;142032;-58
2021/09/12 00:38:56;;;;;;;20.10;17.50;;;;;;;13.85;71.48;99494.65;456353;1194;141922;-59
2021/09/12 00:48:59;;;;;;;21.00;18.90;;;;;;;13.72;71.73;99495.33;456259;1201;142327;-55
2021/09/12 00:59:03;;;;;;;20.20;18.30;;;;;;;13.61;71.84;99492.33;459127;1194;141401;-57
2021/09/12 01:09:06;;;;;;;20.10;18.10;;;;;;;13.56;72.01;99488.65;463251;1195;141663;-58
2021/09/12 01:19:09;;;;;;;22.90;18.30;;;;;;;13.58;72.10;99495.67;472583;1194;142417;-58
2021/09/12 01:29:15;;;;;;;20.10;17.10;;;;;;;13.60;72.07;99491.98;471787;1194;143084;-58
2021/09/12 01:39:18;;;;;;;21.40;19.20;;;;;;;13.54;72.17;99488.42;470098;1194;141325;-58
2021/09/12 01:49:23;;;;;;;20.00;17.80;;;;;;;13.51;72.25;99485.10;473110;1183;141552;-58
2021/09/12 01:59:26;;;;;;;20.10;17.90;;;;;;;13.44;72.16;99474.59;472059;1194;143465;-59
2021/09/12 02:09:29;;;;;;;22.70;20.30;;;;;;;13.36;72.21;99470.11;472913;1194;141865;-59
2021/09/12 02:19:32;;;;;;;22.30;19.90;;;;;;;13.28;72.51;99475.62;472831;1194;143382;-59
2021/09/12 02:29:35;;;;;;;22.80;20.40;;;;;;;13.25;72.74;99472.64;472239;1190;142625;-59
2021/09/12 02:39:38;;;;;;;21.00;18.80;;;;;;;13.30;72.92;99469.98;472850;1194;141999;-59
2021/09/12 02:49:41;;;;;;;23.50;19.70;;;;;;;13.43;73.02;99472.52;472714;1183;142594;-59
2021/09/12 02:59:45;;;;;;;23.80;19.90;;;;;;;13.60;73.01;99479.53;471700;1194;142382;-57
2021/09/12 03:09:48;;;;;;;22.80;20.00;;;;;;;13.72;73.23;99475.79;464414;1192;153831;-58
2021/09/12 03:19:51;;;;;;;23.20;20.90;;;;;;;13.88;73.67;99480.02;471947;1183;142135;-57
2021/09/12 03:29:55;;;;;;;24.70;21.40;;;;;;;14.01;73.69;99483.51;472848;1193;143379;-58
2021/09/12 03:39:58;;;;;;;24.40;21.40;;;;;;;14.09;73.72;99489.74;472884;1194;141887;-58
2021/09/12 03:50:01;;;;;;;24.10;21.70;;;;;;;14.15;74.24;99490.52;471868;1191;142178;-58
2021/09/12 04:00:08;;;;;;;21.40;19.00;;;;;;;14.20;74.70;99482.52;463543;1193;141719;-59
2021/09/12 04:10:12;;;;;;;23.20;21.00;;;;;;;14.16;74.43;99478.27;462278;1195;141904;-57
2021/09/12 04:20:15;;;;;;;24.20;21.80;;;;;;;14.02;74.41;99473.27;471919;1191;142598;-58
2021/09/12 04:30:18;;;;;;;23.20;20.70;;;;;;;13.95;74.67;99472.58;467781;1195;142477;-59
2021/09/12 04:40:22;;;;;;;23.70;21.00;;;;;;;14.00;74.44;99476.70;472779;1195;142597;-59
2021/09/12 04:50:25;;;;;;;22.70;20.50;;;;;;;14.32;74.37;99484.78;472222;1190;142416;-59
2021/09/12 05:00:28;;;;;;;24.70;22.20;;;;;;;14.58;74.28;99491.95;472733;1194;141289;-59
2021/09/12 05:10:32;;;;;;;20.80;18.90;;;;;;;14.81;74.20;99495.77;472366;1194;142532;-59
2021/09/12 05:20:35;;;;;;;22.00;19.30;;;;;;;14.97;73.72;99490.77;467215;1194;142703;-57
2021/09/12 05:30:38;;;;;;;22.10;19.80;;;;;;;15.91;73.60;99488.89;472768;1193;141649;-59
2021/09/12 05:40:42;;;;;;;20.80;18.70;;;;;;;20.20;69.99;99488.64;472763;1194;142041;-59
2021/09/12 05:50:45;;;;;;;20.50;18.30;;;;;;;22.37;63.86;99487.61;465774;1194;141187;-57
2021/09/12 06:00:49;;;;;;;20.80;18.70;;;;;;;21.94;63.04;99489.77;456400;1194;145165;-58
2021/09/12 06:10:52;;;;;;;18.50;16.80;;;;;;;23.87;60.92;99495.96;470417;1194;142243;-59
2021/09/12 06:20:55;;;;;;;19.70;17.70;;;;;;;23.74;58.64;99499.58;472697;1194;141505;-58
2021/09/12 06:30:59;;;;;;;21.30;19.40;;;;;;;21.92;60.00;99511.86;472679;1194;141588;-58
2021/09/12 06:41:03;;;;;;;19.60;17.70;;;;;;;20.93;61.72;99522.56;471867;1193;142621;-60
2021/09/12 06:51:06;;;;;;;20.60;18.10;;;;;;;20.76;62.80;99516.36;460723;1192;141653;-60
2021/09/12 07:01:10;;;;;;;20.80;18.70;;;;;;;21.31;62.62;99513.86;463097;1194;144749;-59
2021/09/12 07:11:13;;;;;;;21.00;18.90;;;;;;;21.70;62.71;99516.48;455003;1195;141763;-60
2021/09/12 07:21:17;;;;;;;21.80;18.00;;;;;;;23.56;61.13;99514.92;468263;1194;142993;-60
2021/09/12 07:31:22;;;;;;;16.80;15.30;;;;;;;27.88;56.92;99510.74;463159;1194;141879;-59
2021/09/12 07:41:26;;;;;;;13.70;12.60;;;;;;;36.14;47.91;99503.80;470059;1195;144789;-60
2021/09/12 07:51:29;;;;;;;11.30;10.20;;;;;;;42.64;37.74;99509.47;472503;1194;141033;-60
2021/09/12 08:01:34;;;;;;;9.50;8.90;;;;;;;45.74;31.57;99512.34;472428;1191;141216;-61
2021/09/12 08:11:38;;;;;;;8.80;8.10;;;;;;;46.38;28.20;99513.20;471688;1194;142500;-61
2021/09/12 08:21:41;;;;;;;8.60;7.80;;;;;;;43.58;27.48;99509.73;472519;1194;142753;-60
2021/09/12 08:31:44;;;;;;;7.30;6.80;;;;;;;39.38;28.85;99499.95;467955;1194;141854;-59
2021/09/12 08:41:48;;;;;;;9.80;9.00;;;;;;;34.92;32.34;99495.14;467723;1194;140645;-61
2021/09/12 08:51:52;;;;;;;9.50;8.80;;;;;;;32.53;35.20;99494.40;472789;1194;140605;-61
2021/09/12 09:01:57;;;;;;;7.50;6.90;;;;;;;30.41;37.96;99488.18;471906;1193;140858;-58
2021/09/12 09:12:20;;;;;;;8.10;7.30;;;;;;;28.88;40.49;99497.38;456767;1194;10002488;-59
2021/09/12 09:22:31;;;;;;;8.10;7.30;;;;;;;29.21;40.96;99499.73;472714;1194;141357;-59
2021/09/12 09:32:35;;;;;;;7.30;6.70;;;;;;;28.82;41.34;99494.46;458839;1194;140872;-58
2021/09/12 09:42:41;;;;;;;7.20;6.60;;;;;;;28.22;42.16;99492.75;455957;1201;140424;-58
2021/09/12 09:52:46;;;;;;;6.70;5.80;;;;;;;27.75;43.51;99495.15;465282;1194;141667;-60
2021/09/12 10:02:51;;;;;;;8.30;5.80;;;;;;;27.15;44.49;99496.80;464014;1194;141447;-61
2021/09/12 10:13:00;;;;;;;6.20;5.60;;;;;;;26.02;46.19;99494.44;470711;1193;144772;-61
2021/09/12 10:23:07;;;;;;;5.80;5.30;;;;;;;26.02;46.88;99491.97;456326;1194;143211;-60
2021/09/12 10:33:21;;;;;;;6.20;5.80;;;;;;;26.55;46.71;99490.52;471551;1194;142462;-61
2021/09/12 10:43:42;;;;;;;5.70;5.30;;;;;;;27.23;45.97;99483.77;472867;1194;140682;-60
2021/09/12 10:54:00;;;;;;;5.20;4.70;;;;;;;26.60;45.53;99473.86;472828;1194;141873;-62
2021/09/12 11:04:04;;;;;;;5.60;5.10;;;;;;;25.75;46.33;99461.13;472805;1193;141025;-62
2021/09/12 11:14:08;;;;;;;7.90;5.70;;;;;;;25.22;47.34;99461.45;472041;1194;141094;-61
2021/09/12 11:24:14;;;;;;;6.10;5.50;;;;;;;25.15;48.29;99453.70;468476;1194;140484;-62
2021/09/12 11:34:18;;;;;;;6.20;5.70;;;;;;;24.79;48.84;99458.73;458225;1194;141712;-61
2021/09/12 11:44:21;;;;;;;6.30;5.70;;;;;;;24.20;50.01;99454.34;466264;1194;142450;-59
2021/09/12 11:54:27;;;;;;;6.60;6.00;;;;;;;24.59;50.37;99443.66;463007;1194;141287;-61
2021/09/12 12:04:33;;;;;;;4.90;4.50;;;;;;;25.14;49.85;99430.61;464775;1194;141382;-61
2021/09/12 12:14:46;;;;;;;4.40;3.70;;;;;;;25.43;48.85;99429.83;458833;1194;140837;-60
2021/09/12 12:24:53;;;;;;;4.60;4.20;;;;;;;25.15;48.32;99421.85;461117;1193;140719;-60
2021/09/12 12:34:58;;;;;;;5.10;4.60;;;;;;;24.84;48.76;99410.34;470615;1194;141333;-61
2021/09/12 12:45:17;;;;;;;5.00;4.60;;;;;;;24.71;49.51;99401.16;472876;1194;141688;-61
2021/09/12 12:55:21;;;;;;;6.60;5.10;;;;;;;24.94;50.01;99398.98;472893;1194;140735;-61
2021/09/12 13:05:24;;;;;;;4.30;4.00;;;;;;;25.01;49.40;99392.36;471870;1194;142128;-61
2021/09/12 13:15:27;;;;;;;4.50;4.20;;;;;;;25.16;48.61;99393.02;472951;1194;141489;-61
2021/09/12 13:25:31;;;;;;;6.10;4.70;;;;;;;25.35;47.99;99393.64;472920;1194;141582;-61
2021/09/12 13:35:34;;;;;;;5.90;5.40;;;;;;;25.23;48.02;99390.23;472145;1194;140996;-61
2021/09/12 13:45:37;;;;;;;6.60;5.50;;;;;;;25.40;48.26;99384.69;472941;1194;141395;-61
2021/09/12 13:55:40;;;;;;;5.70;5.20;;;;;;;25.14;48.55;99380.52;472974;1193;141111;-61
2021/09/12 14:05:44;;;;;;;6.50;6.00;;;;;;;24.88;48.98;99375.46;472143;1193;143729;-61
2021/09/12 14:15:47;;;;;;;6.50;5.90;;;;;;;24.32;49.81;99376.50;472950;1194;141518;-61
2021/09/12 14:25:50;;;;;;;5.50;5.10;;;;;;;23.90;50.31;99375.48;472329;1182;141676;-61
2021/09/12 14:35:53;;;;;;;6.60;6.00;;;;;;;23.97;50.29;99377.84;472749;1194;140831;-61
2021/09/12 14:45:56;;;;;;;6.00;5.40;;;;;;;23.88;50.59;99382.88;472936;1194;140895;-61
2021/09/12 14:56:02;;;;;;;5.60;4.90;;;;;;;23.73;50.80;99381.98;472159;1194;141898;-61
2021/09/12 15:06:06;;;;;;;5.40;4.90;;;;;;;23.55;50.57;99377.78;472805;1194;142540;-62
2021/09/12 15:16:09;;;;;;;6.30;4.90;;;;;;;23.34;50.80;99365.46;472690;1194;140791;-62
2021/09/12 15:26:12;;;;;;;8.00;5.20;;;;;;;23.12;50.82;99360.17;467677;1194;141414;-61
2021/09/12 15:36:16;;;;;;;7.10;5.10;;;;;;;23.27;50.16;99361.23;457215;1195;142421;-61
2021/09/12 15:46:19;;;;;;;6.20;5.30;;;;;;;22.90;50.32;99359.21;456716;1195;140536;-60
2021/09/12 15:56:26;;;;;;;6.90;5.50;;;;;;;22.42;51.31;99358.42;455651;1198;141859;-62
2021/09/12 16:06:29;;;;;;;6.70;5.20;;;;;;;22.09;52.22;99360.46;468876;1195;139905;-62
2021/09/12 16:16:32;;;;;;;7.80;7.00;;;;;;;21.82;52.71;99360.96;472577;1195;141428;-61
2021/09/12 16:26:35;;;;;;;7.20;5.80;;;;;;;21.53;53.29;99359.88;460850;1195;141462;-61
2021/09/12 16:36:39;;;;;;;6.60;5.10;;;;;;;21.24;54.05;99360.29;457096;1195;141074;-62
2021/09/12 16:46:51;;;;;;;7.00;6.40;;;;;;;20.80;55.44;99365.16;445743;1195;20002357;-59
2021/09/12 16:56:54;;;;;;;10.30;6.60;;;;;;;20.33;56.71;99361.58;458475;1194;142691;-58
2021/09/12 17:06:58;;;;;;;9.20;7.50;;;;;;;19.82;57.90;99364.42;456287;1195;141708;-60
2021/09/12 17:17:02;;;;;;;8.00;7.10;;;;;;;19.44;58.98;99356.58;455681;1201;141511;-59
2021/09/12 17:27:06;;;;;;;14.00;8.20;;;;;;;19.21;60.22;99362.89;472723;1194;141526;-59
2021/09/12 17:37:09;;;;;;;8.20;7.40;;;;;;;18.98;60.80;99366.03;472919;1190;142090;-59
2021/09/12 17:47:12;;;;;;;9.50;8.00;;;;;;;18.72;61.58;99372.05;470999;1193;145704;-58
2021/09/12 17:57:17;;;;;;;13.70;9.30;;;;;;;18.60;62.78;99367.23;455947;1198;145923;-59
2021/09/12 18:07:20;;;;;;;10.70;8.50;;;;;;;18.54;63.40;99368.39;456004;1196;141422;-57
2021/09/12 18:17:24;;;;;;;10.60;8.90;;;;;;;18.41;64.01;99366.47;455582;1200;143008;-58
2021/09/12 18:27:27;;;;;;;11.80;8.20;;;;;;;18.30;64.36;99367.15;456036;1201;141492;-59
2021/09/12 18:37:31;;;;;;;12.00;9.00;;;;;;;18.19;64.89;99375.59;469521;1191;141950;-58
2021/09/12 18:47:34;;;;;;;11.00;9.60;;;;;;;18.06;65.49;99384.25;455225;1201;142593;-57
2021/09/12 18:57:37;;;;;;;10.10;8.60;;;;;;;18.06;66.06;99392.63;457816;1194;141549;-59
2021/09/12 19:07:41;;;;;;;10.40;7.80;;;;;;;18.00;66.40;99389.64;459731;1195;142471;-60
2021/09/12 19:17:44;;;;;;;10.90;8.20;;;;;;;17.83;66.88;99400.95;460393;1194;142159;-58
2021/09/12 19:27:50;;;;;;;10.90;9.40;;;;;;;17.70;67.42;99412.33;455858;1201;143020;-58
2021/09/12 19:37:55;;;;;;;14.20;11.50;;;;;;;17.58;67.64;99417.00;464832;1195;142465;-59
2021/09/12 19:47:58;;;;;;;9.60;8.50;;;;;;;17.47;68.07;99423.41;472787;1194;142885;-58
2021/09/12 19:58:01;;;;;;;11.60;9.30;;;;;;;17.42;68.35;99429.55;472385;1194;141430;-58
2021/09/12 20:08:05;;;;;;;10.20;8.60;;;;;;;17.45;68.50;99435.06;471877;1194;143333;-60
2021/09/12 20:18:09;;;;;;;9.80;9.00;;;;;;;17.41;68.49;99433.13;472554;1194;141612;-58
2021/09/12 20:28:13;;;;;;;16.30;9.30;;;;;;;17.34;68.85;99428.62;472539;1194;141925;-60
2021/09/12 20:38:16;;;;;;;13.50;9.40;;;;;;;17.29;69.05;99432.00;471543;1194;143236;-59
2021/09/12 20:48:19;;;;;;;11.90;9.80;;;;;;;17.11;69.23;99437.92;472229;1194;142178;-60
2021/09/12 20:58:22;;;;;;;12.10;10.70;;;;;;;16.99;69.57;99440.37;464127;1194;141080;-61
2021/09/12 21:08:25;;;;;;;11.80;10.70;;;;;;;16.87;69.75;99444.35;455923;1194;141834;-59
2021/09/12 21:18:29;;;;;;;15.80;9.70;;;;;;;16.69;70.13;99453.92;457186;1197;141690;-58
2021/09/12 21:28:32;;;;;;;11.20;10.20;;;;;;;16.49;70.42;99465.45;456450;1195;141264;-60
2021/09/12 21:38:36;;;;;;;13.10;11.10;;;;;;;16.18;70.79;99461.17;455722;1194;142786;-59
2021/09/12 21:48:39;;;;;;;14.50;12.10;;;;;;;15.92;71.37;99466.02;456874;1201;142423;-59
2021/09/12 21:58:43;;;;;;;14.80;11.40;;;;;;;15.70;72.00;99467.58;456236;1200;141965;-60
2021/09/12 22:08:47;;;;;;;12.50;11.20;;;;;;;15.47;71.95;99466.88;456607;1194;143030;-60
2021/09/12 22:18:50;;;;;;;40.60;14.70;;;;;;;15.29;72.09;99468.33;456523;1194;141513;-60
2021/09/12 22:28:53;;;;;;;13.60;11.70;;;;;;;15.11;72.27;99464.84;456007;1195;141571;-59
2021/09/12 22:38:57;;;;;;;15.30;12.70;;;;;;;14.96;72.72;99462.08;456596;1194;142569;-62
2021/09/12 22:49:01;;;;;;;12.80;11.60;;;;;;;14.79;72.82;99455.19;455983;1195;142533;-62
2021/09/12 22:59:04;;;;;;;13.80;12.30;;;;;;;14.61;72.99;99453.67;471768;1194;143270;-62
2021/09/12 23:09:08;;;;;;;12.70;11.40;;;;;;;14.50;72.93;99451.77;470593;1183;142931;-59
2021/09/12 23:19:11;;;;;;;14.80;13.30;;;;;;;14.39;73.16;99452.45;456237;1195;142105;-60
2021/09/12 23:29:14;;;;;;;13.40;12.10;;;;;;;14.30;73.38;99457.83;471889;1194;142445;-62
2021/09/12 23:39:18;;;;;;;15.90;12.10;;;;;;;14.20;73.66;99449.98;460921;1194;141802;-61
2021/09/12 23:49:22;;;;;;;13.80;12.50;;;;;;;14.14;74.42;99444.96;456175;1202;142745;-63
2021/09/12 23:59:25;;;;;;;13.70;12.40;;;;;;;14.03;74.51;99443.10;456194;1194;142310;-62
